Time;durP1;ratioP1;P1;durP2;ratioP2;P2;SDS_P1;SDS_P2;PMS_P1;PMS_P2;Temp;Humidity;BMP_temperature;BMP_pressure;BME280_temperature;BME280_humidity;BME280_pressure;Samples;Min_cycle;Max_cycle;Signal;HPM_P1;HPM_P2
2023/06/25 00:01:57;;;;;;;38.78;34.35;;;563.50;2432.00;;;;;;5095673;28;20024;-80
2023/06/25 00:04:23;;;;;;;35.67;32.08;;;563.60;2432.00;;;;;;5096076;28;20031;-79
2023/06/25 00:06:48;;;;;;;34.28;30.70;;;563.60;2432.00;;;;;;5095865;28;20407;-81
2023/06/25 00:09:14;;;;;;;36.10;30.75;;;563.60;2329.60;;;;;;5096584;28;20020;-81
2023/06/25 00:11:40;;;;;;;37.28;32.67;;;563.50;2432.00;;;;;;5095822;28;20380;-80
2023/06/25 00:14:06;;;;;;;38.97;33.55;;;563.30;2432.00;;;;;;5095950;28;20030;-80
2023/06/25 00:16:33;;;;;;;36.42;32.70;;;563.20;2432.00;;;;;;5091043;28;20029;-80
2023/06/25 00:18:59;;;;;;;37.20;33.30;;;563.30;2201.60;;;;;;5075362;28;20115;-80
2023/06/25 00:21:25;;;;;;;37.05;31.65;;;563.50;2432.00;;;;;;5075395;28;20107;-79
2023/06/25 00:23:51;;;;;;;39.42;34.95;;;563.60;2432.00;;;;;;5076021;28;20075;-79
2023/06/25 00:26:17;;;;;;;34.90;31.17;;;563.60;2432.00;;;;;;5075182;28;20036;-79
2023/06/25 00:28:42;;;;;;;36.53;32.67;;;563.60;2432.00;;;;;;5075168;28;20052;-80
2023/06/25 00:31:08;;;;;;;38.10;34.05;;;563.60;2329.60;;;;;;5092332;28;20039;-81
2023/06/25 00:33:34;;;;;;;42.55;38.00;;;563.70;2432.00;;;;;;5095301;28;20071;-79
2023/06/25 00:36:06;;;;;;;40.72;36.25;;;563.70;2432.00;;;;;;5095907;28;20031;-80
2023/06/25 00:38:39;;;;;;;39.80;35.58;;;563.70;2432.00;;;;;;5095355;28;20024;-80
2023/06/25 00:41:11;;;;;;;42.97;38.45;;;563.70;2432.00;;;;;;5096681;28;20109;-80
2023/06/25 00:43:41;;;;;;;;;;;563.70;2201.60;;;;;;5095350;28;20028;-80
2023/06/25 00:46:12;;;;;;;40.53;36.25;;;563.60;2432.00;;;;;;5096698;28;19912;-81
2023/06/25 00:48:45;;;;;;;41.15;36.85;;;563.60;2432.00;;;;;;5095277;28;20076;-79
2023/06/25 00:51:17;;;;;;;44.25;39.72;;;563.50;2432.00;;;;;;5094780;28;20028;-79
2023/06/25 00:53:43;;;;;;;44.10;39.45;;;563.50;2432.00;;;;;;5095145;28;20111;-80
2023/06/25 00:56:11;;;;;;;41.70;37.50;;;563.60;2432.00;;;;;;5094848;28;20032;-80
2023/06/25 00:58:38;;;;;;;43.58;39.20;;;563.50;2432.00;;;;;;5094472;28;20024;-78
2023/06/25 01:01:11;;;;;;;43.30;38.92;;;563.60;2432.00;;;;;;5079601;28;20051;-79
2023/06/25 01:03:46;;;;;;;45.35;41.08;;;563.60;2432.00;;;;;;5074619;28;20024;-79
2023/06/25 01:06:19;;;;;;;44.72;40.22;;;563.60;2380.80;;;;;;5073900;28;20094;-79
2023/06/25 01:08:50;;;;;;;44.95;40.67;;;563.60;2432.00;;;;;;5074183;28;20064;-78
2023/06/25 01:11:17;;;;;;;43.95;39.60;;;563.60;2406.40;;;;;;5075728;28;20029;-79
2023/06/25 01:13:43;;;;;;;42.53;38.35;;;563.30;2432.00;;;;;;5074434;28;20031;-79
2023/06/25 01:16:09;;;;;;;43.55;39.28;;;563.50;2432.00;;;;;;5074051;28;20032;-80
2023/06/25 01:18:39;;;;;;;41.58;37.58;;;563.60;2432.00;;;;;;5074047;28;20086;-80
2023/06/25 01:21:07;;;;;;;39.75;35.83;;;563.50;2432.00;;;;;;5074436;28;20521;-80
2023/06/25 01:23:35;;;;;;;40.22;36.33;;;563.60;2432.00;;;;;;5074020;28;20115;-81
2023/06/25 01:26:01;;;;;;;41.60;37.50;;;563.50;2432.00;;;;;;5073684;28;20032;-79
2023/06/25 01:28:27;;;;;;;42.30;38.00;;;563.50;2073.60;;;;;;5074054;28;20032;-78
2023/06/25 01:30:53;;;;;;;39.30;35.40;;;563.50;2432.00;;;;;;5074100;28;20035;-80
2023/06/25 01:33:25;;;;;;;38.40;34.60;;;563.50;2048.00;;;;;;5073680;28;20036;-80
2023/06/25 01:35:54;;;;;;;41.17;37.25;;;563.50;2432.00;;;;;;5073994;28;20113;-79
2023/06/25 01:38:20;;;;;;;40.38;36.55;;;563.50;2432.00;;;;;;5075326;28;20104;-78
2023/06/25 01:40:46;;;;;;;40.35;36.28;;;563.60;2432.00;;;;;;5073468;28;20027;-79
2023/06/25 01:43:12;;;;;;;42.05;37.78;;;563.60;2432.00;;;;;;5073787;28;20025;-79
2023/06/25 01:45:38;;;;;;;41.88;37.72;;;563.60;2432.00;;;;;;5074309;28;20107;-79
2023/06/25 01:48:04;;;;;;;41.15;37.20;;;563.60;2432.00;;;;;;5072805;28;20082;-80
2023/06/25 01:50:30;;;;;;;41.97;37.78;;;563.40;2432.00;;;;;;5073491;28;20595;-80
2023/06/25 01:52:56;;;;;;;39.55;35.83;;;563.60;2432.00;;;;;;5074117;28;20032;-79
2023/06/25 01:55:22;;;;;;;43.22;39.05;;;563.60;2432.00;;;;;;5073452;28;20027;-79
2023/06/25 01:57:48;;;;;;;41.88;37.38;;;563.50;2432.00;;;;;;5073421;28;20452;-79
2023/06/25 02:00:14;;;;;;;42.55;38.38;;;563.40;2432.00;;;;;;5073294;28;20108;-79
2023/06/25 02:02:40;;;;;;;43.80;39.53;;;563.40;2432.00;;;;;;5073300;28;20478;-79
2023/06/25 02:05:06;;;;;;;42.75;38.45;;;563.30;2432.00;;;;;;5073296;28;20029;-79
2023/06/25 02:07:31;;;;;;;43.22;38.67;;;563.40;2432.00;;;;;;5074466;28;20052;-80
2023/06/25 02:09:57;;;;;;;42.42;38.45;;;563.40;2432.00;;;;;;5082662;28;20046;-77
2023/06/25 02:12:23;;;;;;;42.55;38.30;;;563.30;2432.00;;;;;;5093216;28;20035;-79
2023/06/25 02:14:49;;;;;;;44.13;39.85;;;563.30;2432.00;;;;;;5077087;28;20039;-77
2023/06/25 02:17:14;;;;;;;42.80;38.53;;;563.20;2432.00;;;;;;5096520;28;20029;-77
2023/06/25 02:19:40;;;;;;;44.58;40.15;;;563.30;2432.00;;;;;;5078576;28;20021;-79
2023/06/25 02:22:06;;;;;;;43.30;39.20;;;563.20;2432.00;;;;;;5072875;28;20027;-80
2023/06/25 02:24:32;;;;;;;41.05;37.30;;;563.20;2432.00;;;;;;5072931;28;20032;-78
2023/06/25 02:26:58;;;;;;;40.80;36.90;;;563.20;2432.00;;;;;;5074115;28;20032;-79
2023/06/25 02:29:23;;;;;;;42.30;38.33;;;563.20;2432.00;;;;;;5072472;28;20047;-79
2023/06/25 02:31:49;;;;;;;39.72;35.78;;;538.50;2406.40;;;;;;5072968;28;20101;-80
2023/06/25 02:34:16;;;;;;;40.42;36.58;;;538.40;2406.40;;;;;;5072746;28;20024;-80
2023/06/25 02:36:43;;;;;;;40.28;36.15;;;538.40;2406.40;;;;;;5072467;28;20029;-79
2023/06/25 02:39:08;;;;;;;41.28;37.35;;;538.30;2406.40;;;;;;5072636;28;20074;-79
2023/06/25 02:41:34;;;;;;;42.20;38.00;;;538.20;2406.40;;;;;;5072759;28;20028;-79
2023/06/25 02:44:00;;;;;;;40.53;36.42;;;538.20;2406.40;;;;;;5072333;28;20429;-79
2023/06/25 02:46:26;;;;;;;44.33;39.83;;;538.20;2406.40;;;;;;5072590;28;20033;-79
2023/06/25 02:48:52;;;;;;;43.20;38.78;;;538.20;2406.40;;;;;;5073805;28;20027;-80
2023/06/25 02:51:17;;;;;;;42.55;38.55;;;538.20;2406.40;;;;;;5072677;28;20021;-79
2023/06/25 02:53:43;;;;;;;45.22;40.55;;;538.10;2406.40;;;;;;5072665;28;20069;-79
2023/06/25 02:56:09;;;;;;;43.72;39.25;;;538.10;2406.40;;;;;;5084810;28;20027;-81
2023/06/25 02:58:35;;;;;;;45.10;40.53;;;538.10;2406.40;;;;;;5091815;28;20511;-79
2023/06/25 03:01:01;;;;;;;44.80;40.30;;;538.10;2406.40;;;;;;5092635;28;20028;-79
2023/06/25 03:03:26;;;;;;;43.80;39.50;;;538.10;2406.40;;;;;;5092467;28;20036;-80
2023/06/25 03:05:53;;;;;;;44.50;40.13;;;538.10;2406.40;;;;;;5092361;28;20532;-80
2023/06/25 03:08:20;;;;;;;46.58;41.72;;;538.00;2406.40;;;;;;5092491;28;20040;-80
2023/06/25 03:10:46;;;;;;;44.47;39.97;;;538.10;2406.40;;;;;;5092288;28;20525;-80
2023/06/25 03:13:11;;;;;;;45.00;40.38;;;538.10;2406.40;;;;;;5092547;28;20024;-79
2023/06/25 03:15:37;;;;;;;43.38;38.95;;;538.10;2406.40;;;;;;5092341;28;20495;-80
2023/06/25 03:18:03;;;;;;;46.47;41.63;;;538.10;2406.40;;;;;;5092147;28;20085;-79
2023/06/25 03:20:29;;;;;;;43.38;38.85;;;538.20;2406.40;;;;;;5092407;28;20021;-80
2023/06/25 03:22:55;;;;;;;43.28;38.75;;;538.20;2406.40;;;;;;5092606;28;20463;-81
2023/06/25 03:25:20;;;;;;;44.67;40.08;;;538.10;2406.40;;;;;;5092144;28;20024;-79
2023/06/25 03:27:46;;;;;;;43.08;38.65;;;538.10;2406.40;;;;;;5092228;28;20143;-80
2023/06/25 03:30:12;;;;;;;42.03;37.80;;;538.10;2406.40;;;;;;5092292;28;20020;-79
2023/06/25 03:32:38;;;;;;;44.35;39.83;;;538.10;2406.40;;;;;;5092082;28;20073;-79
2023/06/25 03:35:04;;;;;;;43.72;39.28;;;538.10;2406.40;;;;;;5092387;28;20073;-80
2023/06/25 03:37:30;;;;;;;44.85;40.35;;;538.10;2406.40;;;;;;5091825;28;20024;-80
2023/06/25 03:39:55;;;;;;;43.70;38.78;;;538.10;2406.40;;;;;;5091931;28;20024;-79
2023/06/25 03:42:21;;;;;;;43.85;39.42;;;538.10;2406.40;;;;;;5092107;28;20115;-80
2023/06/25 03:44:55;;;;;;;43.13;38.53;;;538.10;2406.40;;;;;;5092137;28;20035;-80
2023/06/25 03:47:21;;;;;;;43.53;39.22;;;538.10;2406.40;;;;;;5092065;28;20040;-79
2023/06/25 03:49:47;;;;;;;42.38;37.92;;;538.10;2406.40;;;;;;5092332;28;20384;-80
2023/06/25 03:52:13;;;;;;;42.63;38.35;;;538.10;2406.40;;;;;;5091904;28;20028;-78
2023/06/25 03:54:39;;;;;;;43.63;39.10;;;538.00;2406.40;;;;;;5092145;28;20456;-80
2023/06/25 03:57:05;;;;;;;42.75;38.22;;;538.00;2406.40;;;;;;5092095;28;20028;-80
2023/06/25 03:59:31;;;;;;;44.95;40.10;;;538.00;2406.40;;;;;;5092827;28;20487;-80
2023/06/25 04:01:57;;;;;;;40.47;36.30;;;538.20;2406.40;;;;;;5093005;28;20384;-79
2023/06/25 04:04:23;;;;;;;42.33;38.13;;;538.00;2406.40;;;;;;5092108;28;20195;-79
2023/06/25 04:06:49;;;;;;;42.33;37.78;;;538.10;2406.40;;;;;;5091450;28;20151;-78
2023/06/25 04:09:14;;;;;;;42.83;38.42;;;538.00;2406.40;;;;;;5092208;28;20391;-79
2023/06/25 04:11:40;;;;;;;46.05;41.20;;;538.10;2406.40;;;;;;5095703;28;20084;-81
2023/06/25 04:14:06;;;;;;;44.92;40.10;;;538.10;2406.40;;;;;;5095472;28;20035;-80
2023/06/25 04:16:32;;;;;;;45.03;40.35;;;538.10;2406.40;;;;;;5095667;28;20039;-80
2023/06/25 04:18:58;;;;;;;46.70;41.38;;;538.10;2406.40;;;;;;5096905;28;20027;-79
2023/06/25 04:21:23;;;;;;;45.65;40.83;;;538.10;2406.40;;;;;;5095366;28;20480;-79
2023/06/25 04:23:49;;;;;;;46.80;41.03;;;538.10;2406.40;;;;;;5095479;28;20114;-80
2023/06/25 04:26:15;;;;;;;48.60;42.00;;;538.20;2406.40;;;;;;5097009;28;20380;-79
2023/06/25 04:28:41;;;;;;;47.75;42.65;;;538.20;2406.40;;;;;;5076635;28;20468;-79
2023/06/25 04:31:06;;;;;;;46.38;41.60;;;538.20;2406.40;;;;;;5075101;28;20376;-81
2023/06/25 04:33:34;;;;;;;45.13;40.40;;;538.20;2406.40;;;;;;5082752;28;20032;-79
2023/06/25 04:36:00;;;;;;;46.03;40.92;;;538.20;2406.40;;;;;;5074667;28;20025;-80
2023/06/25 04:38:26;;;;;;;46.15;41.28;;;538.20;2406.40;;;;;;5075034;28;20086;-79
2023/06/25 04:40:52;;;;;;;47.00;42.00;;;538.30;2406.40;;;;;;5074756;28;20112;-78
2023/06/25 04:43:17;;;;;;;48.40;40.90;;;538.30;2406.40;;;;;;5074976;28;20403;-80
2023/06/25 04:45:44;;;;;;;45.85;41.00;;;538.30;2406.40;;;;;;5074831;28;20046;-79
2023/06/25 04:48:10;;;;;;;46.75;41.88;;;538.40;2406.40;;;;;;5074199;28;20047;-79
2023/06/25 04:50:35;;;;;;;46.20;41.38;;;538.40;2406.40;;;;;;5075661;28;20025;-79
2023/06/25 04:53:01;;;;;;;44.92;40.15;;;538.40;2406.40;;;;;;5074516;28;20465;-81
2023/06/25 04:55:28;;;;;;;46.35;41.47;;;538.50;2406.40;;;;;;5074424;28;20170;-80
2023/06/25 04:57:55;;;;;;;44.88;40.15;;;538.50;2406.40;;;;;;5074712;28;20039;-81
2023/06/25 05:00:21;;;;;;;44.15;39.35;;;538.50;2406.40;;;;;;5074338;28;20024;-79
2023/06/25 05:02:47;;;;;;;43.95;38.35;;;538.50;2406.40;;;;;;5079544;28;20020;-80
2023/06/25 05:05:13;;;;;;;43.10;38.45;;;538.50;2406.40;;;;;;5095667;28;20472;-80
2023/06/25 05:07:38;;;;;;;41.88;37.45;;;538.50;2406.40;;;;;;5094660;28;20032;-80
2023/06/25 05:10:05;;;;;;;46.53;39.95;;;538.50;2406.40;;;;;;5094271;28;20028;-80
2023/06/25 05:12:31;;;;;;;43.15;38.60;;;563.20;2432.00;;;;;;5094524;28;20020;-77
2023/06/25 05:14:56;;;;;;;41.95;37.42;;;563.20;2432.00;;;;;;5094634;28;20023;-80
2023/06/25 05:17:22;;;;;;;46.38;39.35;;;563.20;2432.00;;;;;;5095461;28;20107;-79
2023/06/25 05:19:48;;;;;;;44.42;39.13;;;563.30;2432.00;;;;;;5094745;28;20085;-79
2023/06/25 05:22:14;;;;;;;41.85;37.45;;;563.40;2432.00;;;;;;5094305;28;20024;-79
2023/06/25 05:24:39;;;;;;;42.67;38.05;;;563.40;2432.00;;;;;;5094251;28;20029;-78
2023/06/25 05:27:05;;;;;;;45.47;40.53;;;563.40;2432.00;;;;;;5094293;28;20032;-81
2023/06/25 05:29:31;;;;;;;45.50;40.55;;;563.40;2432.00;;;;;;5094205;28;20020;-79
2023/06/25 05:31:58;;;;;;;46.10;40.72;;;563.50;2432.00;;;;;;5093896;28;20521;-78
2023/06/25 05:34:24;;;;;;;42.83;38.33;;;563.50;2432.00;;;;;;5095097;28;20093;-79
2023/06/25 05:36:50;;;;;;;44.58;39.85;;;563.60;2432.00;;;;;;5093864;28;20028;-79
2023/06/25 05:39:16;;;;;;;45.65;40.85;;;563.60;2432.00;;;;;;5093973;28;20482;-78
2023/06/25 05:41:42;;;;;;;46.08;41.13;;;563.60;2432.00;;;;;;5094165;28;20035;-79
2023/06/25 05:44:07;;;;;;;46.67;41.63;;;563.60;2432.00;;;;;;5095063;28;20025;-81
2023/06/25 05:46:33;;;;;;;44.13;39.55;;;563.60;2432.00;;;;;;5095063;28;20474;-81
2023/06/25 05:48:59;;;;;;;45.33;40.33;;;563.60;2432.00;;;;;;5093795;28;20042;-79
2023/06/25 05:51:25;;;;;;;45.10;40.40;;;563.60;2432.00;;;;;;5093467;28;20024;-80
2023/06/25 05:53:53;;;;;;;47.55;42.25;;;563.70;2432.00;;;;;;5093621;28;20039;-80
2023/06/25 05:56:19;;;;;;;44.35;39.78;;;563.70;2432.00;;;;;;5094686;28;20383;-79
2023/06/25 05:58:44;;;;;;;45.50;40.72;;;563.70;2432.00;;;;;;5094361;28;20107;-80
2023/06/25 06:01:10;;;;;;;42.33;37.80;;;563.70;2432.00;;;;;;5094790;28;20431;-80
2023/06/25 06:03:36;;;;;;;42.17;37.67;;;563.70;2432.00;;;;;;5094957;28;20097;-79
2023/06/25 06:06:02;;;;;;;41.92;37.60;;;563.70;2432.00;;;;;;5094569;28;20048;-79
2023/06/25 06:08:28;;;;;;;38.28;34.47;;;563.80;2432.00;;;;;;5093324;28;20043;-80
2023/06/25 06:10:54;;;;;;;39.83;35.65;;;563.80;2432.00;;;;;;5093468;28;20050;-80
2023/06/25 06:13:20;;;;;;;42.15;37.80;;;563.90;2432.00;;;;;;5093283;28;20379;-79
2023/06/25 06:15:46;;;;;;;42.28;37.88;;;564.00;2432.00;;;;;;5093360;28;20024;-79
2023/06/25 06:18:12;;;;;;;41.47;37.28;;;564.00;2432.00;;;;;;5093250;28;20027;-79
2023/06/25 06:20:37;;;;;;;40.58;36.58;;;564.10;2432.00;;;;;;5094673;28;20035;-79
2023/06/25 06:23:03;;;;;;;41.58;37.28;;;564.10;2432.00;;;;;;5093159;28;20052;-79
2023/06/25 06:25:29;;;;;;;42.33;37.92;;;564.10;2432.00;;;;;;5093218;28;20024;-80
2023/06/25 06:27:55;;;;;;;40.40;36.15;;;588.80;2432.00;;;;;;5089274;28;20033;-79
2023/06/25 06:30:22;;;;;;;41.83;37.53;;;588.80;2432.00;;;;;;5084235;28;20102;-81
2023/06/25 06:32:48;;;;;;;41.50;37.33;;;588.80;2432.00;;;;;;5093372;28;20081;-78
2023/06/25 06:35:13;;;;;;;40.50;36.38;;;588.80;2432.00;;;;;;5092918;28;20028;-78
2023/06/25 06:37:39;;;;;;;41.80;37.55;;;588.80;2432.00;;;;;;5093007;28;20035;-81
2023/06/25 06:40:06;;;;;;;40.63;36.55;;;588.90;2432.00;;;;;;5092677;28;20460;-79
2023/06/25 06:42:34;;;;;;;41.63;37.33;;;588.90;2432.00;;;;;;5092890;28;20024;-79
2023/06/25 06:45:00;;;;;;;43.28;38.80;;;588.90;2432.00;;;;;;5092949;28;20352;-80
2023/06/25 06:47:26;;;;;;;43.15;38.53;;;588.90;2432.00;;;;;;5092369;28;20032;-80
2023/06/25 06:49:52;;;;;;;42.40;38.10;;;588.90;2432.00;;;;;;5092847;28;20115;-78
2023/06/25 06:52:23;;;;;;;41.97;37.58;;;588.90;2432.00;;;;;;5092776;28;20482;-79
2023/06/25 06:54:48;;;;;;;41.78;37.55;;;589.00;2432.00;;;;;;5092430;28;20122;-78
2023/06/25 06:57:14;;;;;;;41.05;36.85;;;589.20;2432.00;;;;;;5092576;28;20063;-78
2023/06/25 06:59:40;;;;;;;41.20;36.90;;;589.10;2432.00;;;;;;5094211;28;20020;-78
2023/06/25 07:02:06;;;;;;;42.58;38.28;;;588.90;2432.00;;;;;;5092220;28;20034;-79
2023/06/25 07:04:31;;;;;;;42.20;38.10;;;588.90;2432.00;;;;;;5078814;28;20025;-79
2023/06/25 07:06:57;;;;;;;42.83;38.58;;;589.00;2432.00;;;;;;5073050;28;20045;-78
2023/06/25 07:09:25;;;;;;;41.72;37.28;;;589.00;2432.00;;;;;;5072160;28;20024;-79
2023/06/25 07:11:52;;;;;;;40.88;36.65;;;589.00;2432.00;;;;;;5072356;28;20116;-78
2023/06/25 07:14:17;;;;;;;42.45;38.05;;;589.00;2432.00;;;;;;5072236;28;20029;-79
2023/06/25 07:16:44;;;;;;;44.10;39.38;;;589.00;2432.00;;;;;;5071888;28;20036;-78
2023/06/25 07:19:10;;;;;;;42.85;38.38;;;589.20;2432.00;;;;;;5073460;28;20024;-77
2023/06/25 07:21:37;;;;;;;41.85;37.55;;;589.20;2432.00;;;;;;5072195;28;20025;-78
2023/06/25 07:24:03;;;;;;;43.28;38.67;;;589.60;2432.00;;;;;;5073259;28;20021;-79
2023/06/25 07:26:29;;;;;;;42.20;37.53;;;589.20;2432.00;;;;;;5073379;28;20036;-78
2023/06/25 07:28:55;;;;;;;43.58;37.55;;;589.20;2432.00;;;;;;5071953;28;20074;-78
2023/06/25 07:31:21;;;;;;;39.60;35.63;;;589.10;2432.00;;;;;;5071998;28;20031;-78
2023/06/25 07:33:46;;;;;;;41.38;37.35;;;589.00;2432.00;;;;;;5072141;28;20376;-79
2023/06/25 07:36:12;;;;;;;41.25;36.83;;;589.10;2432.00;;;;;;5071786;28;20483;-80
2023/06/25 07:38:38;;;;;;;40.58;36.63;;;589.00;2432.00;;;;;;5071950;28;20029;-79
2023/06/25 07:41:04;;;;;;;41.03;37.00;;;589.00;2432.00;;;;;;5072077;28;20043;-80
2023/06/25 07:43:30;;;;;;;41.72;37.70;;;589.10;2432.00;;;;;;5072182;28;20388;-78
2023/06/25 07:45:55;;;;;;;41.03;36.83;;;589.20;2432.00;;;;;;5075842;28;20047;-78
2023/06/25 07:48:21;;;;;;;40.13;36.10;;;589.30;2432.00;;;;;;5075707;28;20032;-80
2023/06/25 07:50:47;;;;;;;38.47;34.78;;;589.20;2432.00;;;;;;5075670;28;20039;-79
2023/06/25 07:53:13;;;;;;;40.63;36.67;;;589.20;2432.00;;;;;;5077909;28;20060;-80
2023/06/25 07:55:41;;;;;;;41.30;37.00;;;589.20;2432.00;;;;;;5076459;28;20028;-80
2023/06/25 07:58:07;;;;;;;38.70;34.70;;;589.40;2432.00;;;;;;5076705;28;20028;-80
2023/06/25 08:00:34;;;;;;;37.85;34.08;;;589.60;2432.00;;;;;;5075995;28;20047;-78
2023/06/25 08:03:00;;;;;;;38.15;34.22;;;589.50;2432.00;;;;;;5075903;28;20029;-79
2023/06/25 08:05:26;;;;;;;37.63;34.17;;;589.50;2432.00;;;;;;5075191;28;20102;-80
2023/06/25 08:07:52;;;;;;;37.33;33.75;;;589.50;2432.00;;;;;;5075595;28;20476;-79
2023/06/25 08:10:18;;;;;;;38.58;34.75;;;589.30;2432.00;;;;;;5076803;28;20031;-78
2023/06/25 08:12:44;;;;;;;37.28;33.67;;;589.30;2432.00;;;;;;5075728;28;20024;-78
2023/06/25 08:15:10;;;;;;;38.70;34.80;;;589.10;2432.00;;;;;;5075418;28;20020;-78
2023/06/25 08:17:35;;;;;;;37.45;33.58;;;589.20;2432.00;;;;;;5075701;28;20058;-79
2023/06/25 08:20:02;;;;;;;39.28;35.40;;;589.10;2432.00;;;;;;5076256;28;20032;-77
2023/06/25 08:22:28;;;;;;;36.10;32.50;;;589.20;2432.00;;;;;;5076045;28;20480;-78
2023/06/25 08:24:55;;;;;;;37.53;33.90;;;589.20;2432.00;;;;;;5075560;28;20032;-78
2023/06/25 08:27:21;;;;;;;36.97;33.38;;;589.10;2432.00;;;;;;5075079;28;20036;-79
2023/06/25 08:29:46;;;;;;;37.50;33.72;;;589.00;2432.00;;;;;;5075208;28;20031;-77
2023/06/25 08:32:12;;;;;;;37.65;33.95;;;588.90;2432.00;;;;;;5075027;28;20032;-79
2023/06/25 08:34:38;;;;;;;37.40;33.40;;;588.90;2432.00;;;;;;5095850;28;20025;-78
2023/06/25 08:37:04;;;;;;;37.60;33.75;;;588.80;2432.00;;;;;;5095466;28;20359;-80
2023/06/25 08:39:30;;;;;;;37.17;33.53;;;588.80;2432.00;;;;;;5094688;28;20081;-79
2023/06/25 08:41:56;;;;;;;39.45;35.28;;;588.90;2432.00;;;;;;5096590;28;20028;-79
2023/06/25 08:44:22;;;;;;;37.67;33.60;;;589.00;2432.00;;;;;;5095923;28;20032;-79
2023/06/25 08:46:49;;;;;;;37.28;33.55;;;589.10;2432.00;;;;;;5094648;28;20418;-79
2023/06/25 08:49:16;;;;;;;34.92;31.35;;;589.10;2432.00;;;;;;5094907;28;20031;-77
2023/06/25 08:51:42;;;;;;;37.42;33.47;;;589.00;2432.00;;;;;;5097505;28;20024;-78
2023/06/25 08:54:09;;;;;;;36.03;31.30;;;589.20;2432.00;;;;;;5095037;28;20073;-79
2023/06/25 08:56:35;;;;;;;38.97;35.05;;;589.30;2432.00;;;;;;5096309;28;20486;-80
2023/06/25 08:59:01;;;;;;;36.85;32.50;;;589.50;2432.00;;;;;;5094771;28;20020;-77
2023/06/25 09:01:27;;;;;;;37.58;33.58;;;589.50;2432.00;;;;;;5094483;28;20022;-78
2023/06/25 09:03:52;;;;;;;37.10;33.00;;;589.60;2432.00;;;;;;5095002;28;20028;-77
2023/06/25 09:06:19;;;;;;;35.50;31.70;;;589.70;2432.00;;;;;;5094507;28;20483;-78
2023/06/25 09:08:45;;;;;;;38.35;34.25;;;589.70;2432.00;;;;;;5094081;28;20032;-78
2023/06/25 09:11:12;;;;;;;36.95;32.78;;;614.40;2432.00;;;;;;5096158;28;20096;-78
2023/06/25 09:13:39;;;;;;;35.25;31.58;;;614.50;2432.00;;;;;;5090802;28;20020;-79
2023/06/25 09:16:07;;;;;;;37.17;33.15;;;614.60;2432.00;;;;;;5084646;28;20431;-80
2023/06/25 09:18:33;;;;;;;36.05;31.65;;;614.70;2432.00;;;;;;5074206;28;20028;-78
2023/06/25 09:21:07;;;;;;;36.60;32.67;;;614.80;2432.00;;;;;;5074939;28;20437;-79
2023/06/25 09:23:33;;;;;;;35.15;31.45;;;614.80;2432.00;;;;;;5073971;28;20171;-78
2023/06/25 09:26:06;;;;;;;33.15;29.70;;;614.80;2432.00;;;;;;5073519;28;20032;-78
2023/06/25 09:28:32;;;;;;;33.30;30.00;;;614.80;2432.00;;;;;;5073515;28;20028;-78
2023/06/25 09:30:57;;;;;;;33.90;30.15;;;614.80;2432.00;;;;;;5089866;28;20039;-80
2023/06/25 09:33:32;;;;;;;33.58;30.17;;;614.80;2432.00;;;;;;5094191;28;20161;-78
2023/06/25 09:36:04;;;;;;;33.45;29.42;;;614.70;2432.00;;;;;;5094039;28;20020;-79
2023/06/25 09:38:31;;;;;;;32.45;28.67;;;614.60;2432.00;;;;;;5093977;28;20050;-79
2023/06/25 09:41:00;;;;;;;34.42;30.48;;;614.50;2432.00;;;;;;5093941;28;20028;-81
2023/06/25 09:43:27;;;;;;;32.72;29.02;;;614.60;2432.00;;;;;;5093624;28;20034;-78
2023/06/25 09:45:53;;;;;;;32.92;29.33;;;614.60;2432.00;;;;;;5095083;28;20028;-79
2023/06/25 09:48:26;;;;;;;33.55;29.02;;;614.60;2432.00;;;;;;5093462;28;20171;-78
2023/06/25 09:50:56;;;;;;;34.08;30.15;;;614.40;2432.00;;;;;;5093294;28;20038;-78
2023/06/25 09:53:25;;;;;;;34.78;31.20;;;614.40;2432.00;;;;;;5093974;28;20074;-78
2023/06/25 09:55:52;;;;;;;34.05;30.52;;;614.40;2432.00;;;;;;5093443;28;20020;-78
2023/06/25 09:58:19;;;;;;;32.15;28.77;;;614.40;2432.00;;;;;;5082675;28;20029;-79
2023/06/25 10:00:46;;;;;;;30.77;27.30;;;614.40;2432.00;;;;;;5085706;28;20038;-80
2023/06/25 10:03:13;;;;;;;32.42;28.10;;;614.40;2432.00;;;;;;5093370;28;20107;-79
2023/06/25 10:05:39;;;;;;;33.25;28.42;;;614.40;2432.00;;;;;;5093178;28;20143;-79
2023/06/25 10:08:05;;;;;;;31.33;27.85;;;614.50;2432.00;;;;;;5092298;28;20059;-79
2023/06/25 10:10:32;;;;;;;32.35;28.77;;;614.70;2432.00;;;;;;5092448;28;20067;-79
2023/06/25 10:13:01;;;;;;;34.30;29.75;;;614.60;2432.00;;;;;;5092818;28;20028;-79
2023/06/25 10:15:35;;;;;;;30.88;27.77;;;614.80;2432.00;;;;;;5092966;28;20032;-80
2023/06/25 10:18:07;;;;;;;31.63;27.45;;;614.80;2432.00;;;;;;5094520;28;20028;-81
2023/06/25 10:20:37;;;;;;;37.30;33.28;;;615.00;2432.00;;;;;;5093411;28;20032;-78
2023/06/25 10:23:07;;;;;;;31.20;27.35;;;615.10;2432.00;;;;;;5094995;28;20032;-81
2023/06/25 10:25:35;;;;;;;32.00;28.58;;;615.20;2432.00;;;;;;5096558;28;20020;-79
2023/06/25 10:28:09;;;;;;;28.95;25.98;;;615.20;2432.00;;;;;;5094149;28;20520;-79
2023/06/25 10:30:39;;;;;;;29.42;26.33;;;615.30;2432.00;;;;;;5093251;28;20028;-78
2023/06/25 10:33:06;;;;;;;31.85;26.08;;;640.00;2432.00;;;;;;5092349;28;20403;-79
2023/06/25 10:35:43;;;;;;;27.98;25.17;;;615.30;2432.00;;;;;;5090937;28;20059;-80
2023/06/25 10:38:10;;;;;;;27.58;24.77;;;640.20;2432.00;;;;;;5092147;28;20039;-78
2023/06/25 10:40:37;;;;;;;28.25;25.42;;;640.30;2432.00;;;;;;5093247;28;20028;-81
2023/06/25 10:43:03;;;;;;;28.33;25.42;;;640.40;2432.00;;;;;;5093255;28;20362;-81
2023/06/25 10:45:29;;;;;;;26.92;24.23;;;640.40;2432.00;;;;;;5090999;28;20039;-79
2023/06/25 10:48:03;;;;;;;29.00;25.95;;;640.40;2432.00;;;;;;5092658;28;20035;-82
2023/06/25 10:50:33;;;;;;;28.63;25.60;;;640.40;2432.00;;;;;;5092777;28;20664;-79
2023/06/25 10:53:00;;;;;;;26.65;23.83;;;640.40;2432.00;;;;;;5092420;28;20024;-81
2023/06/25 10:55:25;;;;;;;27.35;24.60;;;640.50;2432.00;;;;;;5092733;28;20464;-81
2023/06/25 10:57:55;;;;;;;27.50;24.83;;;640.50;2432.00;;;;;;5092725;28;20035;-79
2023/06/25 11:00:25;;;;;;;26.58;23.92;;;640.60;2432.00;;;;;;5093456;28;20027;-80
2023/06/25 11:02:52;;;;;;;25.92;23.33;;;640.70;2432.00;;;;;;5093952;28;20040;-79
2023/06/25 11:05:19;;;;;;;27.92;23.42;;;640.70;2432.00;;;;;;5093677;28;20024;-80
2023/06/25 11:07:45;;;;;;;27.10;24.40;;;640.60;2432.00;;;;;;5092393;28;20024;-82
2023/06/25 11:10:13;;;;;;;24.58;21.95;;;640.70;2432.00;;;;;;5092585;28;20028;-79
2023/06/25 11:12:38;;;;;;;25.67;22.98;;;640.70;2432.00;;;;;;5092508;28;20357;-81
2023/06/25 11:15:05;;;;;;;23.20;21.00;;;640.80;2432.00;;;;;;5092390;28;20111;-82
2023/06/25 11:17:30;;;;;;;25.00;22.13;;;665.60;2432.00;;;;;;5091151;28;20568;-82
2023/06/25 11:19:57;;;;;;;26.08;23.27;;;665.70;2432.00;;;;;;5092124;28;20036;-82
2023/06/25 11:22:26;;;;;;;24.00;20.65;;;665.70;2432.00;;;;;;5091855;28;20030;-81
2023/06/25 11:24:52;;;;;;;23.38;21.17;;;665.80;2432.00;;;;;;5092029;28;20032;-81
2023/06/25 11:27:25;;;;;;;23.67;21.33;;;665.80;2432.00;;;;;;5093221;28;20077;-80
2023/06/25 11:29:53;;;;;;;23.90;21.55;;;666.00;2432.00;;;;;;5093333;28;20387;-80
2023/06/25 11:32:24;;;;;;;20.70;18.08;;;666.30;2432.00;;;;;;5091230;28;20465;-79
2023/06/25 11:34:49;;;;;;;20.00;17.55;;;666.50;2432.00;;;;;;5089701;28;20028;-78
2023/06/25 11:37:18;;;;;;;20.52;18.45;;;666.50;2432.00;;;;;;5093129;28;20032;-79
2023/06/25 11:39:51;;;;;;;19.42;17.42;;;691.40;2432.00;;;;;;5092160;28;20035;-78
2023/06/25 11:42:22;;;;;;;18.92;17.05;;;691.60;2432.00;;;;;;5091999;28;20103;-77
2023/06/25 11:45:00;;;;;;;24.13;18.38;;;691.60;2432.00;;;;;;5093816;28;20024;-78
2023/06/25 11:47:26;;;;;;;18.83;16.95;;;691.60;2432.00;;;;;;5092124;28;20376;-79
2023/06/25 11:49:54;;;;;;;19.88;17.77;;;691.60;2432.00;;;;;;5090341;28;20039;-77
2023/06/25 11:52:20;;;;;;;20.77;17.38;;;691.90;2432.00;;;;;;5091957;28;20036;-78
2023/06/25 11:54:46;;;;;;;17.92;16.15;;;692.00;2432.00;;;;;;5092995;28;20031;-77
2023/06/25 11:57:11;;;;;;;19.33;17.27;;;692.00;2432.00;;;;;;5091889;28;20028;-77